KSTK/STK METAR and TAF weather

Enter ICAO airport designator
Station Type Date Time Source
KSTK METAR 2021/05/15 02:35 UTC NOAA

KSTK 150235Z AUTO 10005KT 10SM -RA SCT047 BKN090 OVC110 15/11 A3006 RMK AO2 LTG DSNT E SE AND W


Station Type Date Time Source
KSTK Decoded METAR 2021/05/15 02:35 UTC NOAA

Station name not available
May 14, 2021 - 10:35 PM EDT / 2021.05.15 0235 UTC
Wind: from the E (100 degrees) at 6 MPH (5 KT):0
Visibility: 10 mile(s):0
Sky conditions: overcast
Weather: light rain; Lightning observed
Temperature: 59 F (15 C)
Dew Point: 51 F (11 C)
Relative Humidity: 76%
Pressure (altimeter): 30.06 in. Hg (1017 hPa)
ob: KSTK 150235Z AUTO 10005KT 10SM -RA SCT047 BKN090 OVC110 15/11 A3006 RMK AO2 LTG DSNT E SE AND W
cycle: 2

Station Type Date Time Source
KSTK TAF UTC NOAA

Error!

Example: see airport list